Castleconnell, Ireland

1:53 PM IST on April 30, 2017 (GMT +0100)
Clare Glens, Newport | | Change Station

Elev 367 ft 52.69 °N, 8.39 °W | Updated 8 seconds ago

Mostly Cloudy
Mostly Cloudy
54.9 °F
Feels Like 54.9 °F
N
10.0
Wind Variable Wind from ESE
Gusts 13.6 mph

Today
High -- | Low -- °F
--% Chance of Precip.
Yesterday
High -- | Low -- °F
Precip. -- in
Pressure 29.30 in
Visibility 6.2 miles
Clouds Few 2800 ft
Scattered Clouds 3700 ft
Dew Point 37 °F
Humidity 50%
Rainfall 0.15 in
Snow Depth Not available.
6:03 AM 8:59 PM
Waxing Crescent, 22% visible
METAR EINN 301230Z 13020KT 9999 FEW028 SCT037 13/05 Q0992 NOSIG
Pressure 29.30 in
Visibility 6.2 miles
Clouds Few 2800 ft
Scattered Clouds 3700 ft
Dew Point 37 °F
Humidity 50%
Rainfall 0.15 in
Snow Depth Not available.
6:03 AM 8:59 PM
Waxing Crescent, 22% visible
METAR EINN 301230Z 13020KT 9999 FEW028 SCT037 13/05 Q0992 NOSIG

Get Severe Weather Alerts

Thanks for signing up!

Be on the lookout for a verification email in your inbox.

You'll start receiving the daily forecast at 8 AM.

×

10-Day Weather Forecast

×

Almanac

Astronomy

Apr. 30, 2017 Rise Set
Actual Time
Civil Twilight
Nautical Twilight
Astronomical Twilight
Moon
Length of Visible Light
Length of Day
Tomorrow will be .
, % of the Moon is Illuminated

Today's Extremes

Country Highs Country Lows

Community

WunderPhotos

WunderBlog® & News

Nearby

Air Quality

  Air Quality AQ Index Pollutant
Not available.

Snow Depth

Station Depth Elevation

Earthquake Activity

City Distance Mag. Time & Date
Minimum magnitude displayed is 2.5.

Coastal Water Temperatures

Place Temperature

Stations

Nearby Weather Stations

Station Location Temp. Windchill Dew Point Humidity Wind Precip. Elev Updated Type